sensor_id;sensor_type;location;lat;lon;timestamp;P1;durP1;ratioP1;P2;durP2;ratioP2
38629;SDS011;24384;51.988;4.644;2023-02-22T00:00:27;63.95;;;27.48;;
38629;SDS011;24384;51.988;4.644;2023-02-22T00:03:07;61.00;;;24.52;;
38629;SDS011;24384;51.988;4.644;2023-02-22T00:05:35;57.53;;;26.05;;
38629;SDS011;24384;51.988;4.644;2023-02-22T00:08:03;66.40;;;26.15;;
38629;SDS011;24384;51.988;4.644;2023-02-22T00:10:29;65.85;;;27.73;;
38629;SDS011;24384;51.988;4.644;2023-02-22T00:12:54;66.10;;;28.65;;
38629;SDS011;24384;51.988;4.644;2023-02-22T00:15:21;67.05;;;27.48;;
38629;SDS011;24384;51.988;4.644;2023-02-22T00:17:51;59.67;;;26.42;;
38629;SDS011;24384;51.988;4.644;2023-02-22T00:20:16;62.10;;;25.92;;
38629;SDS011;24384;51.988;4.644;2023-02-22T00:22:43;59.90;;;27.08;;
38629;SDS011;24384;51.988;4.644;2023-02-22T00:25:11;61.65;;;27.25;;
38629;SDS011;24384;51.988;4.644;2023-02-22T00:27:37;57.45;;;25.77;;
38629;SDS011;24384;51.988;4.644;2023-02-22T00:30:03;55.08;;;24.88;;
38629;SDS011;24384;51.988;4.644;2023-02-22T00:32:30;58.30;;;27.33;;
38629;SDS011;24384;51.988;4.644;2023-02-22T00:34:55;61.03;;;26.25;;
38629;SDS011;24384;51.988;4.644;2023-02-22T00:37:21;67.13;;;27.90;;
38629;SDS011;24384;51.988;4.644;2023-02-22T00:39:46;61.95;;;27.60;;
38629;SDS011;24384;51.988;4.644;2023-02-22T00:42:13;60.90;;;27.27;;
38629;SDS011;24384;51.988;4.644;2023-02-22T00:44:38;66.45;;;27.13;;
38629;SDS011;24384;51.988;4.644;2023-02-22T00:47:04;65.07;;;27.15;;
38629;SDS011;24384;51.988;4.644;2023-02-22T00:49:29;61.70;;;26.98;;
38629;SDS011;24384;51.988;4.644;2023-02-22T00:51:54;65.88;;;27.38;;
38629;SDS011;24384;51.988;4.644;2023-02-22T00:54:19;71.35;;;29.63;;
38629;SDS011;24384;51.988;4.644;2023-02-22T00:56:45;69.68;;;30.25;;
38629;SDS011;24384;51.988;4.644;2023-02-22T00:59:10;77.00;;;29.85;;
38629;SDS011;24384;51.988;4.644;2023-02-22T01:01:36;65.55;;;28.98;;
38629;SDS011;24384;51.988;4.644;2023-02-22T01:04:01;68.30;;;27.98;;
38629;SDS011;24384;51.988;4.644;2023-02-22T01:06:26;73.68;;;29.95;;
38629;SDS011;24384;51.988;4.644;2023-02-22T01:08:53;71.82;;;28.80;;
38629;SDS011;24384;51.988;4.644;2023-02-22T01:11:18;67.32;;;30.48;;
38629;SDS011;24384;51.988;4.644;2023-02-22T01:13:44;64.45;;;27.35;;
38629;SDS011;24384;51.988;4.644;2023-02-22T01:16:09;66.68;;;29.00;;
38629;SDS011;24384;51.988;4.644;2023-02-22T01:18:34;66.15;;;29.98;;
38629;SDS011;24384;51.988;4.644;2023-02-22T01:21:00;63.90;;;26.60;;
38629;SDS011;24384;51.988;4.644;2023-02-22T01:23:26;75.60;;;30.58;;
38629;SDS011;24384;51.988;4.644;2023-02-22T01:25:52;62.28;;;29.17;;
38629;SDS011;24384;51.988;4.644;2023-02-22T01:28:17;66.07;;;28.42;;
38629;SDS011;24384;51.988;4.644;2023-02-22T01:30:43;72.30;;;31.42;;
38629;SDS011;24384;51.988;4.644;2023-02-22T01:33:08;75.38;;;32.65;;
38629;SDS011;24384;51.988;4.644;2023-02-22T01:35:36;64.25;;;28.73;;
38629;SDS011;24384;51.988;4.644;2023-02-22T01:38:05;79.80;;;32.97;;
38629;SDS011;24384;51.988;4.644;2023-02-22T01:40:32;73.18;;;31.75;;
38629;SDS011;24384;51.988;4.644;2023-02-22T01:43:00;76.22;;;32.15;;
38629;SDS011;24384;51.988;4.644;2023-02-22T01:47:54;77.78;;;30.83;;
38629;SDS011;24384;51.988;4.644;2023-02-22T01:50:20;75.07;;;31.52;;
38629;SDS011;24384;51.988;4.644;2023-02-22T01:52:46;77.10;;;32.40;;
38629;SDS011;24384;51.988;4.644;2023-02-22T01:55:12;76.28;;;32.72;;
38629;SDS011;24384;51.988;4.644;2023-02-22T01:57:38;78.20;;;32.88;;
38629;SDS011;24384;51.988;4.644;2023-02-22T02:00:05;76.60;;;31.58;;
38629;SDS011;24384;51.988;4.644;2023-02-22T02:02:37;77.95;;;32.85;;
38629;SDS011;24384;51.988;4.644;2023-02-22T02:07:37;80.55;;;33.00;;
38629;SDS011;24384;51.988;4.644;2023-02-22T02:10:08;78.03;;;33.40;;
38629;SDS011;24384;51.988;4.644;2023-02-22T02:12:38;75.38;;;32.42;;
38629;SDS011;24384;51.988;4.644;2023-02-22T02:15:24;85.00;;;34.20;;
38629;SDS011;24384;51.988;4.644;2023-02-22T02:17:56;86.18;;;34.35;;
38629;SDS011;24384;51.988;4.644;2023-02-22T02:29:34;85.38;;;34.00;;
38629;SDS011;24384;51.988;4.644;2023-02-22T02:32:25;82.25;;;35.05;;
38629;SDS011;24384;51.988;4.644;2023-02-22T02:40:11;84.13;;;33.53;;
38629;SDS011;24384;51.988;4.644;2023-02-22T02:42:50;94.38;;;35.78;;
38629;SDS011;24384;51.988;4.644;2023-02-22T02:45:28;80.90;;;33.38;;
38629;SDS011;24384;51.988;4.644;2023-02-22T02:47:58;82.13;;;32.53;;
38629;SDS011;24384;51.988;4.644;2023-02-22T02:50:35;85.25;;;32.78;;
38629;SDS011;24384;51.988;4.644;2023-02-22T02:53:06;88.00;;;34.60;;
38629;SDS011;24384;51.988;4.644;2023-02-22T02:55:33;87.80;;;35.33;;
38629;SDS011;24384;51.988;4.644;2023-02-22T02:58:01;91.45;;;33.70;;
38629;SDS011;24384;51.988;4.644;2023-02-22T03:00:30;86.68;;;34.20;;
38629;SDS011;24384;51.988;4.644;2023-02-22T03:05:51;82.05;;;31.02;;
38629;SDS011;24384;51.988;4.644;2023-02-22T03:08:42;79.55;;;32.90;;
38629;SDS011;24384;51.988;4.644;2023-02-22T03:11:14;90.22;;;30.60;;
38629;SDS011;24384;51.988;4.644;2023-02-22T03:19:11;83.82;;;33.65;;
38629;SDS011;24384;51.988;4.644;2023-02-22T03:22:04;100.47;;;36.58;;
38629;SDS011;24384;51.988;4.644;2023-02-22T03:27:17;102.37;;;35.07;;
38629;SDS011;24384;51.988;4.644;2023-02-22T03:29:49;113.82;;;35.97;;
38629;SDS011;24384;51.988;4.644;2023-02-22T03:32:20;110.07;;;39.08;;
38629;SDS011;24384;51.988;4.644;2023-02-22T03:34:50;98.18;;;37.00;;
38629;SDS011;24384;51.988;4.644;2023-02-22T03:37:24;110.15;;;37.63;;
38629;SDS011;24384;51.988;4.644;2023-02-22T03:39:54;107.43;;;37.35;;
38629;SDS011;24384;51.988;4.644;2023-02-22T03:42:26;121.38;;;39.90;;
38629;SDS011;24384;51.988;4.644;2023-02-22T03:44:56;116.28;;;36.90;;
38629;SDS011;24384;51.988;4.644;2023-02-22T03:47:28;118.45;;;36.80;;
38629;SDS011;24384;51.988;4.644;2023-02-22T03:50:02;123.05;;;38.10;;
38629;SDS011;24384;51.988;4.644;2023-02-22T03:52:31;121.38;;;40.10;;
38629;SDS011;24384;51.988;4.644;2023-02-22T03:54:58;140.18;;;41.95;;
38629;SDS011;24384;51.988;4.644;2023-02-22T03:57:28;144.07;;;41.97;;
38629;SDS011;24384;51.988;4.644;2023-02-22T03:59:57;153.50;;;39.50;;
38629;SDS011;24384;51.988;4.644;2023-02-22T04:02:23;211.43;;;39.53;;
38629;SDS011;24384;51.988;4.644;2023-02-22T04:04:48;167.88;;;38.35;;
38629;SDS011;24384;51.988;4.644;2023-02-22T04:07:14;150.15;;;38.53;;
38629;SDS011;24384;51.988;4.644;2023-02-22T04:09:39;187.55;;;36.92;;
38629;SDS011;24384;51.988;4.644;2023-02-22T04:12:04;201.40;;;40.33;;
38629;SDS011;24384;51.988;4.644;2023-02-22T04:14:30;153.50;;;38.40;;
38629;SDS011;24384;51.988;4.644;2023-02-22T04:16:55;173.30;;;35.42;;
38629;SDS011;24384;51.988;4.644;2023-02-22T04:19:20;248.45;;;38.83;;
38629;SDS011;24384;51.988;4.644;2023-02-22T04:21:46;263.95;;;37.58;;
38629;SDS011;24384;51.988;4.644;2023-02-22T04:24:11;165.23;;;29.33;;
38629;SDS011;24384;51.988;4.644;2023-02-22T04:26:37;270.50;;;39.90;;
38629;SDS011;24384;51.988;4.644;2023-02-22T04:29:02;429.42;;;43.42;;
38629;SDS011;24384;51.988;4.644;2023-02-22T04:31:28;498.33;;;47.70;;
38629;SDS011;24384;51.988;4.644;2023-02-22T04:33:54;289.48;;;42.45;;
38629;SDS011;24384;51.988;4.644;2023-02-22T04:36:19;283.13;;;42.15;;
38629;SDS011;24384;51.988;4.644;2023-02-22T04:38:45;278.52;;;44.22;;
38629;SDS011;24384;51.988;4.644;2023-02-22T04:41:11;350.60;;;42.38;;
38629;SDS011;24384;51.988;4.644;2023-02-22T04:43:37;297.80;;;39.38;;
38629;SDS011;24384;51.988;4.644;2023-02-22T04:46:02;146.80;;;33.20;;
38629;SDS011;24384;51.988;4.644;2023-02-22T04:48:28;319.15;;;39.65;;
38629;SDS011;24384;51.988;4.644;2023-02-22T04:50:54;341.65;;;40.53;;
38629;SDS011;24384;51.988;4.644;2023-02-22T04:53:19;238.43;;;40.50;;
38629;SDS011;24384;51.988;4.644;2023-02-22T04:55:45;218.10;;;37.40;;
38629;SDS011;24384;51.988;4.644;2023-02-22T04:58:10;221.30;;;35.63;;
38629;SDS011;24384;51.988;4.644;2023-02-22T05:00:35;201.98;;;36.13;;
38629;SDS011;24384;51.988;4.644;2023-02-22T05:03:00;266.02;;;37.05;;
38629;SDS011;24384;51.988;4.644;2023-02-22T05:05:26;235.85;;;34.53;;
38629;SDS011;24384;51.988;4.644;2023-02-22T05:07:51;280.75;;;38.47;;
38629;SDS011;24384;51.988;4.644;2023-02-22T05:10:17;296.58;;;37.47;;
38629;SDS011;24384;51.988;4.644;2023-02-22T05:12:43;260.08;;;35.22;;
38629;SDS011;24384;51.988;4.644;2023-02-22T05:15:08;258.27;;;37.72;;
38629;SDS011;24384;51.988;4.644;2023-02-22T05:17:34;205.15;;;34.88;;
38629;SDS011;24384;51.988;4.644;2023-02-22T05:20:00;204.88;;;34.85;;
38629;SDS011;24384;51.988;4.644;2023-02-22T05:22:27;218.98;;;35.42;;
38629;SDS011;24384;51.988;4.644;2023-02-22T05:24:52;201.45;;;34.33;;
38629;SDS011;24384;51.988;4.644;2023-02-22T05:27:17;245.10;;;38.35;;
38629;SDS011;24384;51.988;4.644;2023-02-22T05:29:43;174.18;;;32.28;;
38629;SDS011;24384;51.988;4.644;2023-02-22T05:32:09;187.77;;;34.85;;
38629;SDS011;24384;51.988;4.644;2023-02-22T05:34:36;152.93;;;32.25;;
38629;SDS011;24384;51.988;4.644;2023-02-22T05:37:01;290.75;;;39.20;;
38629;SDS011;24384;51.988;4.644;2023-02-22T05:39:27;270.40;;;40.88;;
38629;SDS011;24384;51.988;4.644;2023-02-22T05:41:53;246.23;;;39.42;;
38629;SDS011;24384;51.988;4.644;2023-02-22T05:44:18;191.10;;;36.95;;
38629;SDS011;24384;51.988;4.644;2023-02-22T05:46:43;253.75;;;43.70;;
38629;SDS011;24384;51.988;4.644;2023-02-22T05:49:09;321.15;;;44.10;;
38629;SDS011;24384;51.988;4.644;2023-02-22T05:51:34;241.27;;;40.47;;
38629;SDS011;24384;51.988;4.644;2023-02-22T05:53:59;205.80;;;41.10;;
38629;SDS011;24384;51.988;4.644;2023-02-22T05:56:25;180.55;;;38.30;;
38629;SDS011;24384;51.988;4.644;2023-02-22T05:58:52;201.18;;;37.40;;
38629;SDS011;24384;51.988;4.644;2023-02-22T06:01:18;303.40;;;40.95;;
38629;SDS011;24384;51.988;4.644;2023-02-22T06:03:46;209.93;;;36.75;;
38629;SDS011;24384;51.988;4.644;2023-02-22T06:06:12;148.52;;;33.40;;
38629;SDS011;24384;51.988;4.644;2023-02-22T06:08:37;138.50;;;32.17;;
38629;SDS011;24384;51.988;4.644;2023-02-22T06:11:02;142.45;;;29.10;;
38629;SDS011;24384;51.988;4.644;2023-02-22T06:13:28;137.55;;;30.38;;
38629;SDS011;24384;51.988;4.644;2023-02-22T06:15:53;95.93;;;27.05;;
38629;SDS011;24384;51.988;4.644;2023-02-22T06:18:18;101.05;;;27.70;;
38629;SDS011;24384;51.988;4.644;2023-02-22T06:20:44;105.95;;;27.02;;
38629;SDS011;24384;51.988;4.644;2023-02-22T06:23:09;131.38;;;29.25;;
38629;SDS011;24384;51.988;4.644;2023-02-22T06:25:35;115.25;;;30.95;;
38629;SDS011;24384;51.988;4.644;2023-02-22T06:28:00;115.43;;;27.92;;
38629;SDS011;24384;51.988;4.644;2023-02-22T06:30:26;123.68;;;28.45;;
38629;SDS011;24384;51.988;4.644;2023-02-22T06:32:52;157.90;;;32.88;;
38629;SDS011;24384;51.988;4.644;2023-02-22T06:35:17;97.43;;;27.10;;
38629;SDS011;24384;51.988;4.644;2023-02-22T06:37:43;95.82;;;28.00;;
38629;SDS011;24384;51.988;4.644;2023-02-22T06:40:09;99.22;;;26.55;;
38629;SDS011;24384;51.988;4.644;2023-02-22T06:42:35;105.80;;;26.17;;
38629;SDS011;24384;51.988;4.644;2023-02-22T06:45:01;94.72;;;25.42;;
38629;SDS011;24384;51.988;4.644;2023-02-22T06:47:26;91.38;;;27.83;;
38629;SDS011;24384;51.988;4.644;2023-02-22T06:49:52;96.32;;;27.35;;
38629;SDS011;24384;51.988;4.644;2023-02-22T06:52:18;89.10;;;25.10;;
38629;SDS011;24384;51.988;4.644;2023-02-22T06:54:44;81.43;;;25.80;;
38629;SDS011;24384;51.988;4.644;2023-02-22T06:57:09;94.22;;;27.00;;
38629;SDS011;24384;51.988;4.644;2023-02-22T06:59:34;82.38;;;27.98;;
38629;SDS011;24384;51.988;4.644;2023-02-22T07:01:59;70.47;;;25.77;;
38629;SDS011;24384;51.988;4.644;2023-02-22T07:04:25;107.22;;;29.08;;
38629;SDS011;24384;51.988;4.644;2023-02-22T07:06:50;78.10;;;27.40;;
38629;SDS011;24384;51.988;4.644;2023-02-22T07:09:16;76.65;;;27.42;;
38629;SDS011;24384;51.988;4.644;2023-02-22T07:11:43;88.75;;;28.00;;
38629;SDS011;24384;51.988;4.644;2023-02-22T07:14:08;77.70;;;25.73;;
38629;SDS011;24384;51.988;4.644;2023-02-22T07:16:34;83.82;;;24.48;;
38629;SDS011;24384;51.988;4.644;2023-02-22T07:18:59;82.47;;;26.17;;
38629;SDS011;24384;51.988;4.644;2023-02-22T07:21:25;79.97;;;25.25;;
38629;SDS011;24384;51.988;4.644;2023-02-22T07:23:52;101.40;;;27.85;;
38629;SDS011;24384;51.988;4.644;2023-02-22T07:26:19;110.35;;;27.80;;
38629;SDS011;24384;51.988;4.644;2023-02-22T07:28:45;73.72;;;26.05;;
38629;SDS011;24384;51.988;4.644;2023-02-22T07:31:11;82.28;;;25.23;;
38629;SDS011;24384;51.988;4.644;2023-02-22T07:33:36;68.35;;;24.65;;
38629;SDS011;24384;51.988;4.644;2023-02-22T07:36:02;57.58;;;23.50;;
38629;SDS011;24384;51.988;4.644;2023-02-22T07:38:27;57.80;;;22.85;;
38629;SDS011;24384;51.988;4.644;2023-02-22T07:40:52;62.95;;;24.50;;
38629;SDS011;24384;51.988;4.644;2023-02-22T07:43:25;63.03;;;25.20;;
38629;SDS011;24384;51.988;4.644;2023-02-22T07:45:54;64.70;;;24.38;;
38629;SDS011;24384;51.988;4.644;2023-02-22T07:48:20;76.57;;;27.83;;
38629;SDS011;24384;51.988;4.644;2023-02-22T07:50:47;71.25;;;27.52;;
38629;SDS011;24384;51.988;4.644;2023-02-22T07:53:14;76.05;;;27.42;;
38629;SDS011;24384;51.988;4.644;2023-02-22T07:55:42;76.82;;;27.23;;
38629;SDS011;24384;51.988;4.644;2023-02-22T07:58:07;76.75;;;28.80;;
38629;SDS011;24384;51.988;4.644;2023-02-22T08:00:37;78.22;;;29.75;;
38629;SDS011;24384;51.988;4.644;2023-02-22T08:03:04;90.15;;;29.17;;
38629;SDS011;24384;51.988;4.644;2023-02-22T08:05:32;88.78;;;29.50;;
38629;SDS011;24384;51.988;4.644;2023-02-22T08:07:58;81.63;;;29.17;;
38629;SDS011;24384;51.988;4.644;2023-02-22T08:10:24;72.68;;;28.15;;
38629;SDS011;24384;51.988;4.644;2023-02-22T08:12:50;76.60;;;27.88;;
38629;SDS011;24384;51.988;4.644;2023-02-22T08:15:18;73.40;;;26.58;;
38629;SDS011;24384;51.988;4.644;2023-02-22T08:17:46;69.85;;;27.83;;
38629;SDS011;24384;51.988;4.644;2023-02-22T08:20:11;55.50;;;21.95;;
38629;SDS011;24384;51.988;4.644;2023-02-22T08:22:37;66.43;;;25.95;;
38629;SDS011;24384;51.988;4.644;2023-02-22T08:25:02;67.20;;;26.17;;
38629;SDS011;24384;51.988;4.644;2023-02-22T08:27:28;75.43;;;26.75;;
38629;SDS011;24384;51.988;4.644;2023-02-22T08:29:55;59.15;;;23.25;;
38629;SDS011;24384;51.988;4.644;2023-02-22T08:32:20;63.35;;;25.23;;
38629;SDS011;24384;51.988;4.644;2023-02-22T08:34:46;59.95;;;24.95;;
38629;SDS011;24384;51.988;4.644;2023-02-22T08:37:12;57.63;;;23.67;;
38629;SDS011;24384;51.988;4.644;2023-02-22T08:39:38;55.72;;;23.33;;
38629;SDS011;24384;51.988;4.644;2023-02-22T08:42:03;59.95;;;23.85;;
38629;SDS011;24384;51.988;4.644;2023-02-22T08:44:29;58.22;;;24.65;;
38629;SDS011;24384;51.988;4.644;2023-02-22T08:46:54;56.17;;;25.00;;
38629;SDS011;24384;51.988;4.644;2023-02-22T08:49:20;48.38;;;21.73;;
38629;SDS011;24384;51.988;4.644;2023-02-22T08:51:45;49.97;;;22.75;;
38629;SDS011;24384;51.988;4.644;2023-02-22T08:54:12;44.17;;;20.75;;
38629;SDS011;24384;51.988;4.644;2023-02-22T08:56:37;46.45;;;20.30;;
38629;SDS011;24384;51.988;4.644;2023-02-22T08:59:02;51.65;;;22.27;;
38629;SDS011;24384;51.988;4.644;2023-02-22T09:01:28;44.58;;;21.15;;
38629;SDS011;24384;51.988;4.644;2023-02-22T09:03:54;45.90;;;22.40;;
38629;SDS011;24384;51.988;4.644;2023-02-22T09:06:22;42.00;;;21.05;;
38629;SDS011;24384;51.988;4.644;2023-02-22T09:08:48;39.22;;;19.85;;
38629;SDS011;24384;51.988;4.644;2023-02-22T09:11:13;41.85;;;20.23;;
38629;SDS011;24384;51.988;4.644;2023-02-22T09:13:38;42.28;;;21.58;;
38629;SDS011;24384;51.988;4.644;2023-02-22T09:16:04;45.58;;;21.05;;
38629;SDS011;24384;51.988;4.644;2023-02-22T09:18:29;39.88;;;20.52;;
38629;SDS011;24384;51.988;4.644;2023-02-22T09:20:54;39.53;;;20.83;;
38629;SDS011;24384;51.988;4.644;2023-02-22T09:23:20;48.75;;;23.33;;
38629;SDS011;24384;51.988;4.644;2023-02-22T09:25:46;45.90;;;21.75;;
38629;SDS011;24384;51.988;4.644;2023-02-22T09:28:12;38.60;;;19.75;;
38629;SDS011;24384;51.988;4.644;2023-02-22T09:30:37;36.55;;;19.73;;
38629;SDS011;24384;51.988;4.644;2023-02-22T09:33:07;42.72;;;20.85;;
38629;SDS011;24384;51.988;4.644;2023-02-22T09:35:34;46.63;;;21.35;;
38629;SDS011;24384;51.988;4.644;2023-02-22T09:38:00;53.85;;;25.98;;
38629;SDS011;24384;51.988;4.644;2023-02-22T09:40:28;55.72;;;27.00;;
38629;SDS011;24384;51.988;4.644;2023-02-22T09:45:53;40.42;;;20.90;;
38629;SDS011;24384;51.988;4.644;2023-02-22T09:51:46;45.28;;;21.40;;
38629;SDS011;24384;51.988;4.644;2023-02-22T09:54:26;46.40;;;22.38;;
38629;SDS011;24384;51.988;4.644;2023-02-22T09:56:58;45.25;;;22.55;;
38629;SDS011;24384;51.988;4.644;2023-02-22T09:59:29;41.67;;;22.15;;
38629;SDS011;24384;51.988;4.644;2023-02-22T10:02:11;44.85;;;22.52;;
38629;SDS011;24384;51.988;4.644;2023-02-22T10:09:44;38.13;;;20.65;;
38629;SDS011;24384;51.988;4.644;2023-02-22T10:17:31;37.50;;;20.77;;
38629;SDS011;24384;51.988;4.644;2023-02-22T10:23:01;37.35;;;20.83;;
38629;SDS011;24384;51.988;4.644;2023-02-22T10:25:48;33.80;;;19.23;;
38629;SDS011;24384;51.988;4.644;2023-02-22T10:28:20;42.70;;;21.08;;
38629;SDS011;24384;51.988;4.644;2023-02-22T10:30:51;34.88;;;20.30;;
38629;SDS011;24384;51.988;4.644;2023-02-22T10:33:26;32.08;;;19.33;;
38629;SDS011;24384;51.988;4.644;2023-02-22T10:35:56;33.65;;;19.77;;
38629;SDS011;24384;51.988;4.644;2023-02-22T10:38:23;36.90;;;20.17;;
38629;SDS011;24384;51.988;4.644;2023-02-22T10:40:55;32.13;;;19.10;;
38629;SDS011;24384;51.988;4.644;2023-02-22T10:43:23;34.28;;;20.33;;
38629;SDS011;24384;51.988;4.644;2023-02-22T10:45:49;33.40;;;19.17;;
38629;SDS011;24384;51.988;4.644;2023-02-22T10:48:19;34.60;;;20.92;;
38629;SDS011;24384;51.988;4.644;2023-02-22T10:50:46;31.35;;;19.40;;
38629;SDS011;24384;51.988;4.644;2023-02-22T10:53:12;31.10;;;18.67;;
38629;SDS011;24384;51.988;4.644;2023-02-22T10:58:28;30.23;;;18.95;;
38629;SDS011;24384;51.988;4.644;2023-02-22T11:01:16;31.70;;;19.15;;
38629;SDS011;24384;51.988;4.644;2023-02-22T11:03:43;29.90;;;17.77;;
38629;SDS011;24384;51.988;4.644;2023-02-22T11:06:18;29.10;;;17.50;;
38629;SDS011;24384;51.988;4.644;2023-02-22T11:08:44;30.85;;;18.58;;
38629;SDS011;24384;51.988;4.644;2023-02-22T11:11:21;32.50;;;18.88;;
38629;SDS011;24384;51.988;4.644;2023-02-22T11:13:52;28.92;;;19.17;;
38629;SDS011;24384;51.988;4.644;2023-02-22T11:16:22;32.03;;;18.80;;
38629;SDS011;24384;51.988;4.644;2023-02-22T11:19:10;30.25;;;18.63;;
38629;SDS011;24384;51.988;4.644;2023-02-22T11:21:36;29.70;;;19.60;;
38629;SDS011;24384;51.988;4.644;2023-02-22T11:24:07;40.90;;;22.88;;
38629;SDS011;24384;51.988;4.644;2023-02-22T11:26:48;31.90;;;19.38;;
38629;SDS011;24384;51.988;4.644;2023-02-22T11:29:24;33.42;;;19.25;;
38629;SDS011;24384;51.988;4.644;2023-02-22T11:31:59;34.83;;;19.15;;
38629;SDS011;24384;51.988;4.644;2023-02-22T11:36:55;33.08;;;19.85;;
38629;SDS011;24384;51.988;4.644;2023-02-22T11:39:27;39.38;;;20.90;;
38629;SDS011;24384;51.988;4.644;2023-02-22T11:41:58;28.10;;;17.65;;
38629;SDS011;24384;51.988;4.644;2023-02-22T11:44:44;30.67;;;19.20;;
38629;SDS011;24384;51.988;4.644;2023-02-22T11:47:10;33.40;;;18.17;;
38629;SDS011;24384;51.988;4.644;2023-02-22T11:49:36;31.60;;;18.17;;
38629;SDS011;24384;51.988;4.644;2023-02-22T12:03:27;31.33;;;18.42;;
38629;SDS011;24384;51.988;4.644;2023-02-22T12:08:56;27.42;;;18.02;;
38629;SDS011;24384;51.988;4.644;2023-02-22T12:11:47;28.58;;;18.15;;
38629;SDS011;24384;51.988;4.644;2023-02-22T12:14:38;28.23;;;17.40;;
38629;SDS011;24384;51.988;4.644;2023-02-22T12:17:12;28.70;;;16.05;;
38629;SDS011;24384;51.988;4.644;2023-02-22T12:19:44;28.27;;;17.63;;
38629;SDS011;24384;51.988;4.644;2023-02-22T12:22:24;29.55;;;17.73;;
38629;SDS011;24384;51.988;4.644;2023-02-22T12:30:17;27.13;;;17.52;;
38629;SDS011;24384;51.988;4.644;2023-02-22T12:33:02;27.88;;;18.45;;
38629;SDS011;24384;51.988;4.644;2023-02-22T12:35:43;25.98;;;17.05;;
38629;SDS011;24384;51.988;4.644;2023-02-22T12:43:38;26.60;;;18.20;;
38629;SDS011;24384;51.988;4.644;2023-02-22T12:46:14;30.80;;;18.87;;
38629;SDS011;24384;51.988;4.644;2023-02-22T12:54:22;26.52;;;18.05;;
38629;SDS011;24384;51.988;4.644;2023-02-22T12:57:01;29.65;;;17.80;;
38629;SDS011;24384;51.988;4.644;2023-02-22T13:04:44;30.92;;;18.58;;
38629;SDS011;24384;51.988;4.644;2023-02-22T13:10:02;33.03;;;16.85;;
38629;SDS011;24384;51.988;4.644;2023-02-22T13:15:57;30.17;;;18.52;;
38629;SDS011;24384;51.988;4.644;2023-02-22T13:21:08;34.13;;;19.60;;
38629;SDS011;24384;51.988;4.644;2023-02-22T13:26:27;29.60;;;19.30;;
38629;SDS011;24384;51.988;4.644;2023-02-22T13:29:04;35.65;;;19.95;;
38629;SDS011;24384;51.988;4.644;2023-02-22T13:40:11;31.83;;;18.85;;
38629;SDS011;24384;51.988;4.644;2023-02-22T13:53:56;38.38;;;21.10;;
38629;SDS011;24384;51.988;4.644;2023-02-22T13:56:26;30.58;;;20.42;;
38629;SDS011;24384;51.988;4.644;2023-02-22T13:58:59;42.75;;;20.85;;
38629;SDS011;24384;51.988;4.644;2023-02-22T14:01:43;34.40;;;22.17;;
38629;SDS011;24384;51.988;4.644;2023-02-22T14:06:51;30.58;;;18.80;;
38629;SDS011;24384;51.988;4.644;2023-02-22T14:09:40;32.35;;;19.92;;
38629;SDS011;24384;51.988;4.644;2023-02-22T14:12:12;36.70;;;21.23;;
38629;SDS011;24384;51.988;4.644;2023-02-22T14:17:37;32.63;;;20.73;;
38629;SDS011;24384;51.988;4.644;2023-02-22T14:22:40;33.00;;;20.80;;
38629;SDS011;24384;51.988;4.644;2023-02-22T14:25:27;32.15;;;19.70;;
38629;SDS011;24384;51.988;4.644;2023-02-22T14:28:08;38.78;;;22.05;;
38629;SDS011;24384;51.988;4.644;2023-02-22T14:31:03;31.48;;;19.70;;
38629;SDS011;24384;51.988;4.644;2023-02-22T14:48:00;37.08;;;22.00;;
38629;SDS011;24384;51.988;4.644;2023-02-22T14:59:22;36.63;;;22.80;;
38629;SDS011;24384;51.988;4.644;2023-02-22T15:01:43;36.95;;;22.25;;
38629;SDS011;24384;51.988;4.644;2023-02-22T15:04:15;32.80;;;23.40;;
38629;SDS011;24384;51.988;4.644;2023-02-22T15:06:50;39.58;;;22.52;;
38629;SDS011;24384;51.988;4.644;2023-02-22T15:09:26;37.10;;;23.25;;
38629;SDS011;24384;51.988;4.644;2023-02-22T15:14:28;35.75;;;22.92;;
38629;SDS011;24384;51.988;4.644;2023-02-22T15:17:08;34.40;;;22.27;;
38629;SDS011;24384;51.988;4.644;2023-02-22T15:19:40;44.35;;;25.13;;
38629;SDS011;24384;51.988;4.644;2023-02-22T15:22:17;39.70;;;23.35;;
38629;SDS011;24384;51.988;4.644;2023-02-22T15:24:47;37.92;;;23.90;;
38629;SDS011;24384;51.988;4.644;2023-02-22T15:27:26;39.78;;;26.05;;
38629;SDS011;24384;51.988;4.644;2023-02-22T15:29:57;40.78;;;26.48;;
38629;SDS011;24384;51.988;4.644;2023-02-22T15:35:10;41.15;;;28.08;;
38629;SDS011;24384;51.988;4.644;2023-02-22T15:37:37;42.70;;;29.50;;
38629;SDS011;24384;51.988;4.644;2023-02-22T15:40:06;51.22;;;30.35;;
38629;SDS011;24384;51.988;4.644;2023-02-22T15:42:42;58.10;;;31.38;;
38629;SDS011;24384;51.988;4.644;2023-02-22T15:45:11;46.22;;;32.35;;
38629;SDS011;24384;51.988;4.644;2023-02-22T15:47:39;52.05;;;34.78;;
38629;SDS011;24384;51.988;4.644;2023-02-22T15:50:14;54.72;;;34.33;;
38629;SDS011;24384;51.988;4.644;2023-02-22T15:52:47;54.30;;;34.13;;
38629;SDS011;24384;51.988;4.644;2023-02-22T15:55:17;54.05;;;36.08;;
38629;SDS011;24384;51.988;4.644;2023-02-22T15:57:45;55.40;;;35.60;;
38629;SDS011;24384;51.988;4.644;2023-02-22T16:00:17;58.22;;;36.22;;
38629;SDS011;24384;51.988;4.644;2023-02-22T16:02:45;62.53;;;38.90;;
38629;SDS011;24384;51.988;4.644;2023-02-22T16:05:12;65.88;;;39.70;;
38629;SDS011;24384;51.988;4.644;2023-02-22T16:07:45;70.47;;;44.60;;
38629;SDS011;24384;51.988;4.644;2023-02-22T16:10:18;69.47;;;44.75;;
38629;SDS011;24384;51.988;4.644;2023-02-22T16:12:49;73.88;;;45.83;;
38629;SDS011;24384;51.988;4.644;2023-02-22T16:15:30;81.53;;;49.17;;
38629;SDS011;24384;51.988;4.644;2023-02-22T16:17:56;83.97;;;50.58;;
38629;SDS011;24384;51.988;4.644;2023-02-22T16:22:48;98.38;;;57.15;;
38629;SDS011;24384;51.988;4.644;2023-02-22T16:27:41;112.60;;;61.05;;
38629;SDS011;24384;51.988;4.644;2023-02-22T16:30:37;117.53;;;60.13;;
38629;SDS011;24384;51.988;4.644;2023-02-22T16:33:04;108.38;;;62.55;;
38629;SDS011;24384;51.988;4.644;2023-02-22T16:35:33;115.68;;;63.38;;
38629;SDS011;24384;51.988;4.644;2023-02-22T16:38:03;127.22;;;66.80;;
38629;SDS011;24384;51.988;4.644;2023-02-22T16:40:34;120.78;;;65.35;;
38629;SDS011;24384;51.988;4.644;2023-02-22T16:43:05;124.38;;;67.18;;
38629;SDS011;24384;51.988;4.644;2023-02-22T16:45:32;112.07;;;62.88;;
38629;SDS011;24384;51.988;4.644;2023-02-22T16:47:58;111.28;;;61.03;;
38629;SDS011;24384;51.988;4.644;2023-02-22T16:50:26;103.55;;;61.42;;
38629;SDS011;24384;51.988;4.644;2023-02-22T16:52:52;103.78;;;58.03;;
38629;SDS011;24384;51.988;4.644;2023-02-22T16:55:22;89.13;;;54.85;;
38629;SDS011;24384;51.988;4.644;2023-02-22T16:57:49;95.88;;;52.45;;
38629;SDS011;24384;51.988;4.644;2023-02-22T17:00:22;87.05;;;48.40;;
38629;SDS011;24384;51.988;4.644;2023-02-22T17:02:56;91.05;;;52.38;;
38629;SDS011;24384;51.988;4.644;2023-02-22T17:05:22;85.10;;;49.78;;
38629;SDS011;24384;51.988;4.644;2023-02-22T17:07:48;86.63;;;48.70;;
38629;SDS011;24384;51.988;4.644;2023-02-22T17:10:14;94.15;;;51.90;;
38629;SDS011;24384;51.988;4.644;2023-02-22T17:12:43;82.07;;;48.33;;